createdAt,value
2019-05-25T00:01:54.082Z,4.03
2019-05-25T00:06:55.437Z,4.97
2019-05-25T00:11:56.857Z,4.27
2019-05-25T00:16:58.166Z,3.87
2019-05-25T00:21:59.474Z,4.17
2019-05-25T00:27:01.630Z,4.67
2019-05-25T00:32:03.811Z,4.20
2019-05-25T00:37:05.104Z,3.80
2019-05-25T00:42:07.352Z,4.43
2019-05-25T00:47:08.757Z,4.27
2019-05-25T00:52:10.889Z,3.63
2019-05-25T00:57:12.318Z,3.70
2019-05-25T01:02:13.646Z,2.87
2019-05-25T01:07:15.010Z,3.10
2019-05-25T01:12:16.340Z,2.70
2019-05-25T01:17:17.690Z,3.10
2019-05-25T01:22:18.994Z,3.30
2019-05-25T01:27:20.299Z,2.97
2019-05-25T01:32:21.710Z,3.53
2019-05-25T01:37:23.052Z,3.20
2019-05-25T01:42:24.417Z,3.07
2019-05-25T01:47:25.799Z,2.83
2019-05-25T01:52:27.190Z,2.50
2019-05-25T01:57:28.514Z,3.03
2019-05-25T02:02:29.972Z,3.47
2019-05-25T02:07:31.349Z,2.80
2019-05-25T02:12:32.731Z,3.20
2019-05-25T02:17:34.121Z,2.97
2019-05-25T02:22:35.557Z,2.67
2019-05-25T02:27:36.894Z,3.10
2019-05-25T02:32:38.329Z,3.20
2019-05-25T02:37:39.675Z,3.20
2019-05-25T02:42:41.050Z,3.20
2019-05-25T02:47:43.176Z,3.23
2019-05-25T02:52:44.552Z,3.43
2019-05-25T02:57:45.930Z,3.10
2019-05-25T03:02:47.536Z,2.63
2019-05-25T03:07:48.793Z,3.00
2019-05-25T03:12:50.185Z,3.47
2019-05-25T03:17:51.549Z,3.10
2019-05-25T03:22:52.906Z,3.00
2019-05-25T03:27:54.263Z,2.77
2019-05-25T03:32:55.682Z,3.37
2019-05-25T03:37:57.072Z,2.93
2019-05-25T03:42:59.192Z,3.13
2019-05-25T03:48:00.613Z,2.97
2019-05-25T03:53:01.958Z,3.23
2019-05-25T03:58:03.385Z,3.17
2019-05-25T04:03:04.721Z,2.90
2019-05-25T04:08:06.064Z,3.30
2019-05-25T04:13:07.422Z,3.17
2019-05-25T04:18:08.800Z,3.23
2019-05-25T04:23:10.102Z,3.40
2019-05-25T04:28:11.509Z,3.43
2019-05-25T04:33:12.920Z,3.07
2019-05-25T04:38:15.043Z,3.07
2019-05-25T04:43:16.480Z,3.17
2019-05-25T04:48:17.857Z,3.80
2019-05-25T04:53:19.289Z,3.30
2019-05-25T04:58:21.454Z,3.47
2019-05-25T05:03:23.628Z,3.43
2019-05-25T05:08:25.695Z,3.07
2019-05-25T05:13:27.049Z,3.57
2019-05-25T05:18:28.470Z,3.67
2019-05-25T05:23:29.938Z,4.30
2019-05-25T05:28:32.057Z,4.10
2019-05-25T05:33:33.507Z,3.93
2019-05-25T05:38:34.972Z,4.27
2019-05-25T05:43:36.372Z,3.23
2019-05-25T05:48:37.779Z,3.43
2019-05-25T05:53:39.896Z,5.20
2019-05-25T05:58:41.201Z,5.10
2019-05-25T06:03:42.575Z,5.23
2019-05-25T06:08:47.791Z,5.37
2019-05-25T06:13:49.384Z,5.37
2019-05-25T06:18:50.731Z,5.57
2019-05-25T06:23:52.109Z,6.03
2019-05-25T06:28:53.489Z,4.77
2019-05-25T06:33:55.214Z,5.70
2019-05-25T06:38:56.681Z,6.37
2019-05-25T06:43:59.252Z,5.80
2019-05-25T06:49:01.402Z,5.80
2019-05-25T06:54:02.801Z,6.17
2019-05-25T06:59:04.198Z,5.80
2019-05-25T07:04:09.824Z,6.20
2019-05-25T07:09:11.205Z,5.53
2019-05-25T07:14:12.539Z,5.90
2019-05-25T07:19:13.891Z,6.40
2019-05-25T07:24:15.257Z,5.50
2019-05-25T07:29:16.597Z,5.70
2019-05-25T07:34:17.936Z,5.33
2019-05-25T07:39:19.275Z,6.87
2019-05-25T07:44:21.381Z,6.80
2019-05-25T07:49:23.112Z,6.00
2019-05-25T07:54:24.491Z,4.97
2019-05-25T07:59:26.537Z,5.23
2019-05-25T08:04:27.870Z,5.30
2019-05-25T08:09:29.216Z,4.40
2019-05-25T08:14:30.579Z,5.20
2019-05-25T08:19:32.640Z,5.30
2019-05-25T08:24:33.970Z,4.50
2019-05-25T08:29:35.338Z,4.30
2019-05-25T08:34:36.700Z,4.27
2019-05-25T08:39:38.028Z,4.73
2019-05-25T08:44:39.366Z,5.57
2019-05-25T08:49:40.739Z,5.33
2019-05-25T08:54:42.761Z,5.07
2019-05-25T08:59:44.077Z,5.30
2019-05-25T09:04:46.152Z,5.67
2019-05-25T09:09:47.448Z,4.27
2019-05-25T09:14:48.735Z,4.70
2019-05-25T09:19:50.109Z,4.20
2019-05-25T09:24:51.558Z,3.83
2019-05-25T09:29:52.898Z,4.27
2019-05-25T09:34:54.222Z,5.27
2019-05-25T09:39:55.550Z,5.67
2019-05-25T09:44:56.865Z,5.03
2019-05-25T09:49:58.177Z,5.33
2019-05-25T09:54:59.543Z,5.40
2019-05-25T10:00:00.848Z,4.20
2019-05-25T10:05:02.156Z,4.27
2019-05-25T10:10:03.554Z,5.77
2019-05-25T10:15:04.962Z,6.07
2019-05-25T10:20:07.074Z,5.00
2019-05-25T10:25:08.425Z,5.90
2019-05-25T10:30:09.825Z,4.37
2019-05-25T10:35:12.046Z,5.60
2019-05-25T10:40:13.379Z,5.23
2019-05-25T10:45:14.697Z,6.00
2019-05-25T10:50:16.752Z,5.33
2019-05-25T10:55:18.085Z,4.27
2019-05-25T11:00:19.447Z,4.53
2019-05-25T11:05:20.813Z,3.40
2019-05-25T11:10:22.581Z,4.73
2019-05-25T11:15:24.501Z,5.43
2019-05-25T11:20:25.914Z,3.70
2019-05-25T11:25:27.297Z,4.63
2019-05-25T11:30:28.721Z,4.23
2019-05-25T11:35:30.117Z,4.60
2019-05-25T11:40:31.548Z,4.57
2019-05-25T11:45:32.865Z,5.67
2019-05-25T11:50:34.191Z,4.00
2019-05-25T11:55:36.237Z,4.20
2019-05-25T12:00:38.885Z,5.37
2019-05-25T12:05:40.196Z,6.23
2019-05-25T12:10:41.613Z,5.40
2019-05-25T12:15:42.938Z,4.70
2019-05-25T12:20:45.212Z,5.33
2019-05-25T12:25:54.689Z,4.43
2019-05-25T12:30:57.658Z,4.37
2019-05-25T12:35:58.992Z,3.57
2019-05-25T12:41:00.321Z,2.90
2019-05-25T12:46:09.908Z,4.50
2019-05-25T12:51:11.271Z,3.20
2019-05-25T12:56:12.579Z,4.90
2019-05-25T13:01:13.889Z,5.17
2019-05-25T13:06:18.096Z,4.60
2019-05-25T13:11:17.315Z,4.40
2019-05-25T13:16:19.397Z,6.03
2019-05-25T13:21:21.465Z,5.13
2019-05-25T13:26:22.785Z,5.07
2019-05-25T13:31:24.102Z,3.67
2019-05-25T13:36:25.460Z,4.10
2019-05-25T13:41:26.772Z,3.70
2019-05-25T13:46:28.073Z,3.90
2019-05-25T13:51:29.405Z,4.30
2019-05-25T13:56:30.701Z,3.30
2019-05-25T14:01:32.069Z,3.37
2019-05-25T14:06:33.409Z,3.50
2019-05-25T14:11:34.740Z,3.37
2019-05-25T14:16:36.056Z,3.37
2019-05-25T14:21:37.371Z,4.33
2019-05-25T14:26:38.661Z,3.10
2019-05-25T14:31:45.558Z,2.63
2019-05-25T14:36:41.547Z,2.73
2019-05-25T14:41:43.597Z,2.40
2019-05-25T14:46:44.956Z,2.60
2019-05-25T14:51:46.281Z,2.13
2019-05-25T14:56:47.626Z,1.90
2019-05-25T15:02:01.463Z,1.80
2019-05-25T15:06:50.623Z,1.70
2019-05-25T15:11:54.024Z,1.63
2019-05-25T15:16:53.361Z,2.20
2019-05-25T15:21:54.819Z,2.10
2019-05-25T15:26:56.106Z,2.20
2019-05-25T15:31:57.436Z,2.33
2019-05-25T15:36:58.782Z,1.90
2019-05-25T15:42:00.145Z,2.40
2019-05-25T15:47:04.694Z,2.60
2019-05-25T15:52:02.803Z,2.03
2019-05-25T15:57:04.116Z,2.10
2019-05-25T16:02:05.456Z,2.03
2019-05-25T16:07:06.789Z,2.23
2019-05-25T16:12:08.115Z,1.93
2019-05-25T16:17:10.194Z,2.37
2019-05-25T16:22:11.609Z,2.20
2019-05-25T16:27:13.656Z,2.40
2019-05-25T16:32:14.973Z,2.70
2019-05-25T16:37:16.369Z,2.57
2019-05-25T16:42:17.689Z,2.70
2019-05-25T16:47:19.016Z,2.10
2019-05-25T16:52:20.341Z,2.20
2019-05-25T16:57:21.685Z,1.93
2019-05-25T17:02:23.010Z,2.20
2019-05-25T17:07:24.354Z,2.10
2019-05-25T17:12:26.466Z,2.57
2019-05-25T17:17:27.806Z,3.10
2019-05-25T17:22:29.875Z,3.40
2019-05-25T17:27:31.937Z,3.10
2019-05-25T17:32:33.246Z,3.33
2019-05-25T17:37:34.554Z,2.83
2019-05-25T17:42:35.884Z,5.17
2019-05-25T17:47:37.256Z,4.27
2019-05-25T17:52:38.597Z,3.40
2019-05-25T17:57:41.315Z,3.50
2019-05-25T18:02:42.628Z,3.20
2019-05-25T18:07:47.833Z,3.10
2019-05-25T18:12:51.718Z,3.70
2019-05-25T18:18:01.110Z,4.57
2019-05-25T18:23:06.018Z,4.73
2019-05-25T18:28:10.381Z,4.10
2019-05-25T18:33:27.371Z,4.00
2019-05-25T18:38:34.490Z,3.63
2019-05-25T18:43:40.756Z,4.30
2019-05-25T18:48:45.073Z,3.70
2019-05-25T18:53:50.328Z,4.70
2019-05-25T18:58:53.488Z,4.13
2019-05-25T19:03:58.246Z,3.60
2019-05-25T19:09:07.089Z,4.67
2019-05-25T19:14:08.453Z,4.50
2019-05-25T19:19:12.532Z,4.57
2019-05-25T19:24:13.893Z,4.43
2019-05-25T19:29:15.974Z,4.67
2019-05-25T19:34:17.318Z,4.43
2019-05-25T19:39:18.645Z,3.80
2019-05-25T19:44:19.948Z,3.90
2019-05-25T19:49:21.271Z,3.40
2019-05-25T19:54:22.618Z,3.00
2019-05-25T19:59:23.989Z,2.97
2019-05-25T20:04:25.293Z,3.53
2019-05-25T20:09:26.627Z,3.07
2019-05-25T20:14:27.957Z,3.00
2019-05-25T20:19:30.004Z,2.97
2019-05-25T20:24:31.348Z,3.47
2019-05-25T20:29:32.664Z,3.97
2019-05-25T20:34:34.778Z,4.27
2019-05-25T20:39:37.720Z,4.20
2019-05-25T20:44:39.030Z,4.47
2019-05-25T20:49:41.082Z,4.10
2019-05-25T20:54:42.419Z,4.03
2019-05-25T20:59:43.726Z,30.27
2019-05-25T21:04:45.095Z,21.97
2019-05-25T21:09:47.145Z,9.83
2019-05-25T21:14:48.509Z,7.77
2019-05-25T21:19:50.449Z,5.80
2019-05-25T21:24:51.799Z,4.07
2019-05-25T21:29:53.863Z,4.87
2019-05-25T21:34:56.690Z,4.77
2019-05-25T21:39:58.327Z,5.53
2019-05-25T21:44:59.650Z,5.73
2019-05-25T21:50:00.964Z,9.97
2019-05-25T21:55:03.071Z,6.70
2019-05-25T22:00:04.412Z,6.13
2019-05-25T22:05:06.454Z,6.43
2019-05-25T22:10:07.766Z,6.43
2019-05-25T22:15:09.852Z,8.17
2019-05-25T22:20:14.963Z,6.20
2019-05-25T22:25:16.305Z,6.43
2019-05-25T22:30:17.696Z,5.80
2019-05-25T22:35:19.045Z,6.07
2019-05-25T22:40:21.043Z,7.50
2019-05-25T22:45:22.879Z,7.23
2019-05-25T22:50:24.337Z,8.27
2019-05-25T22:55:26.429Z,6.57
2019-05-25T23:00:28.626Z,8.23
2019-05-25T23:05:30.069Z,8.27
2019-05-25T23:10:31.526Z,8.93
2019-05-25T23:15:33.552Z,8.70
2019-05-25T23:20:36.736Z,8.07
2019-05-25T23:25:38.294Z,6.93
2019-05-25T23:30:39.702Z,8.23
2019-05-25T23:35:41.041Z,8.90
2019-05-25T23:40:42.375Z,8.20
2019-05-25T23:45:45.200Z,8.63
2019-05-25T23:50:46.510Z,8.97
2019-05-25T23:55:47.907Z,9.67
